Time;durP1;ratioP1;P1;durP2;ratioP2;P2;SDS_P1;SDS_P2;PMS_P1;PMS_P2;Temp;Humidity;BMP_temperature;BMP_pressure;BME280_temperature;BME280_humidity;BME280_pressure;Samples;Min_cycle;Max_cycle;Signal;HPM_P1;HPM_P2
2021/04/27 00:01:46;;;;;;;1.05;0.80;;;3.70;70.40;;;;;;4980814;28;20035;-85
2021/04/27 00:04:12;;;;;;;0.95;0.75;;;3.60;71.70;;;;;;4963498;28;20069;-85
2021/04/27 00:06:38;;;;;;;2.78;1.00;;;3.50;71.10;;;;;;4965808;28;20051;-85
2021/04/27 00:09:07;;;;;;;1.40;0.90;;;3.40;71.70;;;;;;4962457;28;20031;-85
2021/04/27 00:11:34;;;;;;;1.50;0.98;;;3.30;72.10;;;;;;4931698;28;20031;-85
2021/04/27 00:14:00;;;;;;;1.58;0.80;;;3.10;72.80;;;;;;4960448;28;20671;-85
2021/04/27 00:16:26;;;;;;;2.42;0.93;;;3.00;71.90;;;;;;4962297;28;20564;-85
2021/04/27 00:18:51;;;;;;;3.70;1.08;;;2.80;72.30;;;;;;4945434;28;20047;-86
2021/04/27 00:21:17;;;;;;;1.30;0.80;;;2.80;72.40;;;;;;4962403;28;20038;-86
2021/04/27 00:23:43;;;;;;;1.58;0.95;;;2.70;72.60;;;;;;4962057;28;20126;-86
2021/04/27 00:26:08;;;;;;;1.10;0.88;;;2.70;72.50;;;;;;4965452;28;20038;-86
2021/04/27 00:28:34;;;;;;;1.10;0.68;;;2.60;71.90;;;;;;4988148;28;20490;-85
2021/04/27 00:31:00;;;;;;;2.92;1.00;;;2.60;72.20;;;;;;4947321;28;20486;-86
2021/04/27 00:33:26;;;;;;;2.72;1.15;;;2.70;75.30;;;;;;4978193;28;20394;-85
2021/04/27 00:35:51;;;;;;;1.27;0.88;;;2.70;72.80;;;;;;4961796;28;20067;-86
2021/04/27 00:38:17;;;;;;;0.82;0.82;;;2.60;72.50;;;;;;4966436;28;20062;-85
2021/04/27 00:40:43;;;;;;;1.95;1.30;;;2.60;74.00;;;;;;4964633;28;20609;-86
2021/04/27 00:43:09;;;;;;;3.20;1.02;;;2.50;73.10;;;;;;4964297;28;20061;-86
2021/04/27 00:45:34;;;;;;;0.70;0.55;;;2.50;73.20;;;;;;4966576;28;20557;-85
2021/04/27 00:48:00;;;;;;;2.70;0.80;;;2.60;76.50;;;;;;4964511;28;20035;-85
2021/04/27 00:50:29;;;;;;;1.73;1.10;;;2.50;75.30;;;;;;4933050;28;20023;-87
2021/04/27 00:52:56;;;;;;;1.35;1.00;;;2.50;75.90;;;;;;4965061;28;20046;-85
2021/04/27 00:55:23;;;;;;;1.75;0.95;;;2.50;75.40;;;;;;4965317;28;20034;-85
2021/04/27 00:57:49;;;;;;;0.90;0.75;;;2.50;74.10;;;;;;4952241;28;20027;-85
2021/04/27 01:00:20;;;;;;;4.50;0.90;;;2.50;73.00;;;;;;4989077;28;20031;-86
2021/04/27 01:02:47;;;;;;;1.70;1.00;;;2.50;73.00;;;;;;4961588;28;20030;-85
2021/04/27 01:05:17;;;;;;;0.85;0.85;;;2.50;72.60;;;;;;4982526;28;20078;-86
2021/04/27 01:07:50;;;;;;;1.88;1.08;;;2.50;73.80;;;;;;4965084;28;20031;-85
2021/04/27 01:10:21;;;;;;;1.27;0.90;;;2.50;75.60;;;;;;4964133;28;20031;-85
2021/04/27 01:13:00;;;;;;;1.45;1.08;;;2.40;75.60;;;;;;4976794;28;20027;-85
2021/04/27 01:15:28;;;;;;;1.88;1.10;;;2.40;76.50;;;;;;4983493;28;20051;-86
2021/04/27 01:17:57;;;;;;;3.47;1.00;;;2.40;75.70;;;;;;4990632;28;20054;-85
2021/04/27 01:20:36;;;;;;;1.75;0.80;;;2.30;76.80;;;;;;4981622;28;20025;-85
2021/04/27 01:23:22;;;;;;;0.77;0.73;;;2.30;77.30;;;;;;4989229;28;20466;-86
2021/04/27 01:26:19;;;;;;;2.97;0.80;;;2.30;76.70;;;;;;4986659;28;20037;-86
2021/04/27 01:28:50;;;;;;;2.25;0.82;;;2.20;76.80;;;;;;4981695;28;20061;-85
2021/04/27 01:31:17;;;;;;;0.88;0.70;;;2.20;78.20;;;;;;4968020;28;20027;-85
2021/04/27 01:33:44;;;;;;;1.67;1.00;;;2.10;77.50;;;;;;4987868;28;20053;-86
2021/04/27 01:36:11;;;;;;;1.60;0.88;;;2.10;78.80;;;;;;4982552;28;20041;-86
2021/04/27 01:38:53;;;;;;;1.98;1.13;;;2.00;79.00;;;;;;4979176;28;20469;-85
2021/04/27 01:41:19;;;;;;;1.92;0.80;;;2.00;78.40;;;;;;4963334;28;20031;-85
2021/04/27 01:43:47;;;;;;;1.00;0.63;;;2.00;78.60;;;;;;4965738;28;20042;-84
2021/04/27 01:46:14;;;;;;;2.63;1.08;;;2.00;82.00;;;;;;4968043;28;20035;-85
2021/04/27 01:48:40;;;;;;;1.23;0.70;;;1.90;81.60;;;;;;4979541;28;20062;-85
2021/04/27 01:51:11;;;;;;;3.90;1.23;;;1.90;81.10;;;;;;4972562;28;20573;-85
2021/04/27 01:53:56;;;;;;;2.45;0.98;;;1.90;80.20;;;;;;4974203;28;20153;-85
2021/04/27 01:56:25;;;;;;;1.90;0.80;;;1.90;80.30;;;;;;4990637;28;20030;-85
2021/04/27 01:58:51;;;;;;;2.00;0.98;;;1.80;80.10;;;;;;4991576;28;20041;-86
2021/04/27 02:01:20;;;;;;;2.42;1.13;;;1.80;80.20;;;;;;4973843;28;20038;-87
2021/04/27 02:03:48;;;;;;;3.65;1.00;;;1.80;79.50;;;;;;4972400;28;20065;-86
2021/04/27 02:06:32;;;;;;;1.13;0.98;;;1.80;80.60;;;;;;4982843;28;20046;-86
2021/04/27 02:09:09;;;;;;;1.67;0.93;;;1.80;79.80;;;;;;4964022;28;20031;-86
2021/04/27 02:11:38;;;;;;;1.15;0.60;;;1.80;80.70;;;;;;4970253;28;20073;-85
2021/04/27 02:14:08;;;;;;;2.05;0.80;;;1.90;82.20;;;;;;4964485;28;20039;-85
2021/04/27 02:16:53;;;;;;;1.48;1.00;;;1.80;81.50;;;;;;4934125;28;20035;-85
2021/04/27 02:19:25;;;;;;;0.82;0.82;;;1.90;82.30;;;;;;4973896;28;20057;-87
2021/04/27 02:22:06;;;;;;;1.13;0.77;;;1.90;82.70;;;;;;4988937;28;20050;-86
2021/04/27 02:24:55;;;;;;;2.17;1.42;;;2.00;83.20;;;;;;4934497;28;20483;-85
2021/04/27 02:27:23;;;;;;;1.40;0.88;;;1.90;81.80;;;;;;4986584;28;20485;-86
2021/04/27 02:29:49;;;;;;;2.67;0.95;;;1.90;85.30;;;;;;4957926;28;20509;-85
2021/04/27 02:32:18;;;;;;;2.05;1.08;;;1.90;84.50;;;;;;4973619;28;20031;-85
2021/04/27 02:34:44;;;;;;;1.85;0.90;;;1.90;86.30;;;;;;4969068;28;20041;-86
2021/04/27 02:37:16;;;;;;;1.48;1.00;;;1.90;86.50;;;;;;4964184;28;20045;-86
2021/04/27 02:39:43;;;;;;;3.92;0.95;;;1.90;86.60;;;;;;4969429;28;20050;-86
2021/04/27 02:42:09;;;;;;;3.05;0.88;;;1.90;85.20;;;;;;4990088;28;20425;-85
2021/04/27 02:44:53;;;;;;;1.50;1.10;;;1.90;83.60;;;;;;4961426;28;20046;-85
2021/04/27 02:47:43;;;;;;;1.20;1.08;;;1.90;82.20;;;;;;4986680;28;20039;-85
2021/04/27 02:50:12;;;;;;;1.40;0.90;;;1.90;82.20;;;;;;4970767;28;20038;-86
2021/04/27 02:52:40;;;;;;;0.98;0.85;;;1.90;84.60;;;;;;4946184;28;20035;-85
2021/04/27 02:55:07;;;;;;;1.75;0.77;;;2.00;87.40;;;;;;4971872;28;20034;-86
2021/04/27 02:57:35;;;;;;;3.10;1.20;;;2.00;88.40;;;;;;4987929;28;20489;-85
2021/04/27 03:00:04;;;;;;;1.80;0.93;;;2.00;89.00;;;;;;4989480;28;20035;-86
2021/04/27 03:02:33;;;;;;;2.90;1.63;;;1.90;89.60;;;;;;4948943;28;20038;-86
2021/04/27 03:04:59;;;;;;;14.00;5.18;;;1.90;86.60;;;;;;4968073;28;20035;-85
2021/04/27 03:07:32;;;;;;;16.40;6.18;;;1.90;88.00;;;;;;4963781;28;20039;-87
2021/04/27 03:09:57;;;;;;;9.63;4.43;;;1.90;86.10;;;;;;4951712;29;20039;-85
2021/04/27 03:12:24;;;;;;;18.65;6.82;;;1.90;82.50;;;;;;4968497;28;20058;-86
2021/04/27 03:14:49;;;;;;;25.35;8.98;;;2.00;84.20;;;;;;4958864;28;20557;-86
2021/04/27 03:17:20;;;;;;;28.05;11.10;;;2.00;84.40;;;;;;4964255;28;20039;-86
2021/04/27 03:19:55;;;;;;;17.77;6.30;;;2.00;82.90;;;;;;4972824;28;20034;-86
2021/04/27 03:22:27;;;;;;;12.98;5.38;;;2.10;80.70;;;;;;4967568;28;20107;-86
2021/04/27 03:24:53;;;;;;;15.82;6.15;;;2.10;81.10;;;;;;4941991;28;20109;-87
2021/04/27 03:27:20;;;;;;;6.13;2.97;;;2.20;81.20;;;;;;4985656;28;20040;-87
2021/04/27 03:30:07;;;;;;;2.55;1.42;;;2.30;82.10;;;;;;4963931;28;20077;-86
2021/04/27 03:32:34;;;;;;;3.38;1.27;;;2.30;79.60;;;;;;4956537;28;20403;-85
2021/04/27 03:35:00;;;;;;;2.97;1.48;;;2.40;78.20;;;;;;4944020;29;20131;-85
2021/04/27 03:37:26;;;;;;;2.63;1.73;;;2.40;78.70;;;;;;4959793;28;20119;-84
2021/04/27 03:39:52;;;;;;;1.65;1.35;;;2.50;81.80;;;;;;4967229;28;20386;-86
2021/04/27 03:42:18;;;;;;;3.78;1.25;;;2.50;82.20;;;;;;4968602;28;20487;-85
2021/04/27 03:44:47;;;;;;;2.92;1.90;;;2.50;81.30;;;;;;4956002;28;20038;-86
2021/04/27 03:47:15;;;;;;;3.40;1.40;;;2.60;78.20;;;;;;4973017;28;20130;-85
2021/04/27 03:49:40;;;;;;;1.90;1.30;;;2.60;78.00;;;;;;4976524;28;20055;-85
2021/04/27 03:52:06;;;;;;;3.80;1.95;;;2.60;78.30;;;;;;4974152;28;20406;-86
2021/04/27 03:54:33;;;;;;;4.25;1.73;;;2.60;79.00;;;;;;4973522;28;20038;-84
2021/04/27 03:56:59;;;;;;;3.08;1.98;;;2.60;78.80;;;;;;4968176;28;20242;-85
2021/04/27 03:59:26;;;;;;;2.72;1.40;;;2.60;79.20;;;;;;4968076;28;20034;-85
2021/04/27 04:01:52;;;;;;;3.10;1.90;;;2.60;78.30;;;;;;4940295;28;20046;-84
2021/04/27 04:04:20;;;;;;;3.33;1.55;;;2.60;80.10;;;;;;4955241;28;20516;-85
2021/04/27 04:07:06;;;;;;;2.70;1.35;;;2.70;82.20;;;;;;4963600;28;20031;-84
2021/04/27 04:09:51;;;;;;;3.22;1.27;;;2.70;82.40;;;;;;4953598;28;20110;-85
2021/04/27 04:12:23;;;;;;;3.85;1.27;;;2.70;82.90;;;;;;4973876;28;20035;-86
2021/04/27 04:14:49;;;;;;;3.47;1.45;;;2.60;83.90;;;;;;4992478;28;20027;-86
2021/04/27 04:17:22;;;;;;;2.25;1.45;;;2.70;82.90;;;;;;4976625;28;20405;-85
2021/04/27 04:19:48;;;;;;;1.98;1.10;;;2.70;83.40;;;;;;4959543;28;20042;-85
2021/04/27 04:22:14;;;;;;;1.42;1.08;;;2.70;84.00;;;;;;4971731;28;20667;-86
2021/04/27 04:24:56;;;;;;;1.92;1.10;;;2.70;84.40;;;;;;4977956;28;20133;-85
2021/04/27 04:27:22;;;;;;;1.75;1.10;;;2.70;85.00;;;;;;4991508;28;20620;-85
2021/04/27 04:30:12;;;;;;;1.58;0.93;;;2.70;86.30;;;;;;4989538;28;20110;-84
2021/04/27 04:32:39;;;;;;;2.92;1.20;;;2.70;85.00;;;;;;4975004;28;20097;-85
2021/04/27 04:35:26;;;;;;;3.63;1.38;;;2.70;84.60;;;;;;4990114;28;20536;-85
2021/04/27 04:38:11;;;;;;;1.48;1.10;;;2.70;84.90;;;;;;4975350;28;20422;-85
2021/04/27 04:40:56;;;;;;;4.20;1.33;;;2.70;85.80;;;;;;4983077;28;20046;-85
2021/04/27 04:43:40;;;;;;;1.77;1.23;;;2.70;86.40;;;;;;4983689;28;20073;-85
2021/04/27 04:46:25;;;;;;;1.77;1.40;;;2.60;87.40;;;;;;4947116;28;20079;-84
2021/04/27 04:49:09;;;;;;;2.22;1.35;;;2.60;88.00;;;;;;4956245;28;20505;-84
2021/04/27 04:51:58;;;;;;;2.05;1.27;;;2.50;86.90;;;;;;4970340;28;20031;-85
2021/04/27 04:54:42;;;;;;;1.20;1.02;;;2.50;86.70;;;;;;4975142;28;20046;-84
2021/04/27 04:57:24;;;;;;;1.95;1.33;;;2.50;87.40;;;;;;4983347;28;20042;-85
2021/04/27 04:59:50;;;;;;;3.00;1.45;;;2.50;87.60;;;;;;4977995;28;20031;-85
2021/04/27 05:02:16;;;;;;;1.75;1.20;;;2.50;86.90;;;;;;4973390;28;20089;-85
2021/04/27 05:05:01;;;;;;;2.88;1.75;;;2.60;86.20;;;;;;4974937;28;20054;-84
2021/04/27 05:07:48;;;;;;;1.10;0.90;;;2.60;85.60;;;;;;4988507;28;20089;-85
2021/04/27 05:10:37;;;;;;;4.45;1.55;;;2.70;86.00;;;;;;4985463;28;20106;-85
2021/04/27 05:13:22;;;;;;;2.88;1.30;;;2.80;86.60;;;;;;5005990;28;20540;-84
2021/04/27 05:15:47;;;;;;;2.30;1.20;;;2.90;85.90;;;;;;4958379;28;20034;-84
2021/04/27 05:18:15;;;;;;;2.35;1.30;;;2.90;85.60;;;;;;4986791;28;20102;-84
2021/04/27 05:20:41;;;;;;;3.03;1.77;;;3.00;87.00;;;;;;4982436;28;20562;-84
2021/04/27 05:23:07;;;;;;;1.33;0.90;;;3.00;85.70;;;;;;4984469;28;20026;-85
2021/04/27 05:25:42;;;;;;;2.83;1.25;;;3.10;85.70;;;;;;4943255;29;20048;-84
2021/04/27 05:28:11;;;;;;;1.52;0.90;;;3.20;85.90;;;;;;4939575;29;20035;-86
2021/04/27 05:30:37;;;;;;;3.15;1.40;;;3.40;86.40;;;;;;4954646;28;20031;-84
2021/04/27 05:33:03;;;;;;;1.83;1.00;;;3.70;85.10;;;;;;4935030;29;20058;-85
2021/04/27 05:35:28;;;;;;;5.03;1.15;;;4.10;84.10;;;;;;4954981;28;20090;-83
2021/04/27 05:37:54;;;;;;;2.53;1.02;;;4.50;81.20;;;;;;4968295;28;20039;-84
2021/04/27 05:40:20;;;;;;;2.88;1.00;;;5.00;79.40;;;;;;4960477;28;20046;-85
2021/04/27 05:42:45;;;;;;;3.60;1.35;;;5.50;78.90;;;;;;4953359;29;20490;-85
2021/04/27 05:45:12;;;;;;;3.00;1.05;;;6.00;78.30;;;;;;4963441;28;20063;-85
2021/04/27 05:47:37;;;;;;;2.33;1.20;;;6.50;75.50;;;;;;4991798;28;20142;-86
2021/04/27 05:50:05;;;;;;;1.30;1.10;;;7.10;74.00;;;;;;4983334;28;20049;-84
2021/04/27 05:52:30;;;;;;;1.98;1.17;;;7.60;76.00;;;;;;4986644;28;20026;-84
2021/04/27 05:54:56;;;;;;;4.82;1.55;;;8.10;73.30;;;;;;4986376;28;20030;-85
2021/04/27 05:57:22;;;;;;;2.92;1.35;;;8.50;68.70;;;;;;4953551;28;20031;-85
2021/04/27 05:59:51;;;;;;;2.55;1.77;;;8.80;67.50;;;;;;4988558;28;20707;-84
2021/04/27 06:02:17;;;;;;;3.85;1.42;;;9.10;63.90;;;;;;4971086;28;20043;-85
2021/04/27 06:04:43;;;;;;;2.70;1.70;;;9.20;63.80;;;;;;4969807;28;20122;-85
2021/04/27 06:07:09;;;;;;;3.47;1.40;;;9.50;61.90;;;;;;4985428;28;20045;-85
2021/04/27 06:09:36;;;;;;;2.47;1.40;;;9.80;63.20;;;;;;4989825;28;20050;-86
2021/04/27 06:12:02;;;;;;;3.60;1.67;;;10.10;62.00;;;;;;4985484;28;20150;-86
2021/04/27 06:14:28;;;;;;;3.50;1.85;;;10.50;58.60;;;;;;4975043;28;20102;-86
2021/04/27 06:16:54;;;;;;;4.63;1.65;;;10.80;59.50;;;;;;4977923;28;20065;-86
2021/04/27 06:19:19;;;;;;;4.70;2.47;;;10.90;54.00;;;;;;4992799;28;20526;-85
2021/04/27 06:21:47;;;;;;;1.95;1.80;;;11.00;55.00;;;;;;4973800;28;20121;-85
2021/04/27 06:24:13;;;;;;;2.13;1.63;;;11.10;55.80;;;;;;4974017;28;20099;-86
2021/04/27 06:26:39;;;;;;;3.85;1.88;;;11.10;52.20;;;;;;4946504;28;20086;-87
2021/04/27 06:29:05;;;;;;;2.60;2.00;;;10.90;52.10;;;;;;4964253;28;20026;-85
2021/04/27 06:31:32;;;;;;;3.78;1.80;;;10.70;53.20;;;;;;4992607;28;20031;-85
2021/04/27 06:33:58;;;;;;;5.05;3.15;;;10.80;52.90;;;;;;4972904;28;20031;-84
2021/04/27 06:36:24;;;;;;;2.95;1.88;;;10.80;52.70;;;;;;4987625;28;20557;-85
2021/04/27 06:38:49;;;;;;;3.90;2.20;;;11.00;51.70;;;;;;4988074;28;20401;-85
2021/04/27 06:41:17;;;;;;;4.85;2.30;;;11.30;51.10;;;;;;4971785;28;20039;-86
2021/04/27 06:43:43;;;;;;;2.97;2.03;;;11.30;53.80;;;;;;4971965;28;20158;-84
2021/04/27 06:46:09;;;;;;;1.60;1.40;;;11.40;52.10;;;;;;4969365;28;20122;-86
2021/04/27 06:48:35;;;;;;;3.50;2.50;;;11.70;50.50;;;;;;4972381;28;20111;-85
2021/04/27 06:51:03;;;;;;;2.67;1.95;;;11.90;52.30;;;;;;4988538;28;20037;-85
2021/04/27 06:53:29;;;;;;;8.18;2.17;;;12.10;50.00;;;;;;4983725;28;20035;-86
2021/04/27 06:55:55;;;;;;;3.38;2.00;;;12.30;48.50;;;;;;4970811;28;20516;-84
2021/04/27 06:58:20;;;;;;;7.03;3.08;;;12.30;48.50;;;;;;4971514;28;20059;-86
2021/04/27 07:00:46;;;;;;;2.30;1.63;;;12.70;51.90;;;;;;4968922;28;20047;-85
2021/04/27 07:03:12;;;;;;;3.65;1.90;;;12.80;47.30;;;;;;4972971;28;20097;-87
2021/04/27 07:05:38;;;;;;;4.38;2.28;;;13.10;49.10;;;;;;4987381;28;20031;-85
2021/04/27 07:08:04;;;;;;;3.47;2.00;;;13.40;48.50;;;;;;4991608;28;20023;-85
2021/04/27 07:10:31;;;;;;;3.70;2.03;;;13.70;45.50;;;;;;4971322;28;20109;-86
2021/04/27 07:12:57;;;;;;;6.65;2.63;;;13.70;44.40;;;;;;4955911;28;20027;-90
2021/04/27 07:15:22;;;;;;;5.68;2.58;;;13.50;46.00;;;;;;4971918;28;20086;-88
2021/04/27 07:17:48;;;;;;;3.72;2.63;;;13.40;45.30;;;;;;4973167;28;20046;-89
2021/04/27 07:20:15;;;;;;;7.10;2.75;;;13.20;45.70;;;;;;4973734;28;20031;-85
2021/04/27 07:22:41;;;;;;;4.38;2.05;;;12.80;45.50;;;;;;4987360;28;20027;-87
2021/04/27 07:25:08;;;;;;;3.22;2.70;;;12.60;45.40;;;;;;4993017;28;20030;-88
2021/04/27 07:27:34;;;;;;;8.68;3.08;;;12.30;48.10;;;;;;4971914;28;20438;-87
2021/04/27 07:30:00;;;;;;;4.18;2.60;;;12.30;47.30;;;;;;4976994;28;20150;-85
2021/04/27 07:32:26;;;;;;;5.68;2.78;;;12.10;46.90;;;;;;4954794;28;20425;-85
2021/04/27 07:34:52;;;;;;;4.72;2.47;;;12.10;48.00;;;;;;4988806;28;20065;-86
2021/04/27 07:37:18;;;;;;;3.97;2.35;;;12.20;47.10;;;;;;4995073;28;20038;-86
2021/04/27 07:39:44;;;;;;;4.93;2.92;;;12.10;46.90;;;;;;4976294;28;20054;-87
2021/04/27 07:42:11;;;;;;;5.13;2.55;;;12.10;46.80;;;;;;4986588;28;20624;-86
2021/04/27 07:44:37;;;;;;;3.15;2.58;;;12.20;48.60;;;;;;4987582;28;20513;-87
2021/04/27 07:47:03;;;;;;;7.55;2.92;;;12.30;47.90;;;;;;4991600;28;20560;-86
2021/04/27 07:49:29;;;;;;;6.18;3.03;;;12.50;45.70;;;;;;4992834;28;20073;-86
2021/04/27 07:51:55;;;;;;;5.38;2.58;;;12.40;46.50;;;;;;4974521;28;20026;-87
2021/04/27 07:54:22;;;;;;;5.95;2.65;;;12.20;46.70;;;;;;4989083;28;20035;-87
2021/04/27 07:56:50;;;;;;;6.72;2.65;;;11.90;46.60;;;;;;4975180;28;20034;-89
2021/04/27 07:59:16;;;;;;;5.70;3.10;;;11.80;47.70;;;;;;4993731;28;20046;-87
2021/04/27 08:01:42;;;;;;;5.50;2.47;;;11.90;48.60;;;;;;4992320;28;20047;-87
2021/04/27 08:04:08;;;;;;;3.67;2.72;;;12.00;47.70;;;;;;4980051;28;20026;-86
2021/04/27 08:06:35;;;;;;;6.57;2.30;;;12.00;48.50;;;;;;4976652;28;20581;-87
2021/04/27 08:09:01;;;;;;;4.35;2.47;;;12.00;48.60;;;;;;4992007;28;20034;-88
2021/04/27 08:11:27;;;;;;;6.57;3.28;;;11.70;49.30;;;;;;4992595;28;20027;-87
2021/04/27 08:13:53;;;;;;;4.35;2.97;;;11.70;49.70;;;;;;4991326;28;20081;-87
2021/04/27 08:16:19;;;;;;;3.75;2.75;;;11.60;49.60;;;;;;4946248;28;20050;-89
2021/04/27 08:18:45;;;;;;;5.65;3.03;;;11.70;49.30;;;;;;4981650;28;20066;-87
2021/04/27 08:21:12;;;;;;;5.65;2.80;;;11.60;49.20;;;;;;4975506;28;20041;-86
2021/04/27 08:23:39;;;;;;;3.45;2.53;;;11.40;49.00;;;;;;4991416;28;20419;-88
2021/04/27 08:26:09;;;;;;;3.33;2.42;;;11.50;51.30;;;;;;4977098;28;20023;-87
2021/04/27 08:28:35;;;;;;;3.42;2.60;;;11.50;50.00;;;;;;4977486;28;20740;-88
2021/04/27 08:31:01;;;;;;;5.65;3.10;;;11.50;50.70;;;;;;4977255;28;20031;-86
2021/04/27 08:33:27;;;;;;;3.70;2.63;;;11.70;53.20;;;;;;4976429;28;20035;-88
2021/04/27 08:35:53;;;;;;;3.88;3.00;;;11.60;48.90;;;;;;4992629;28;20125;-86
2021/04/27 08:38:23;;;;;;;4.35;2.90;;;11.60;50.90;;;;;;4991889;28;20054;-87
2021/04/27 08:40:50;;;;;;;4.43;2.95;;;11.50;50.80;;;;;;5000544;28;20037;-87
2021/04/27 08:43:17;;;;;;;4.72;3.20;;;11.40;51.30;;;;;;4976665;28;20442;-88
2021/04/27 08:45:44;;;;;;;5.15;2.90;;;11.50;52.70;;;;;;4974798;28;20030;-87
2021/04/27 08:48:12;;;;;;;4.43;2.92;;;11.70;51.60;;;;;;4977533;28;20486;-88
2021/04/27 08:50:39;;;;;;;6.05;3.08;;;12.00;51.30;;;;;;4974010;28;20027;-87
2021/04/27 08:53:05;;;;;;;5.18;3.35;;;12.00;51.30;;;;;;4977671;28;20035;-87
2021/04/27 08:55:31;;;;;;;6.50;3.30;;;12.20;52.40;;;;;;4971809;28;20043;-86
2021/04/27 08:57:57;;;;;;;8.70;3.55;;;12.10;49.20;;;;;;4984532;28;20039;-85
2021/04/27 09:16:18;;;;;;;4.93;3.20;;;11.70;53.00;;;;;;4974929;28;20041;-88
2021/04/27 09:31:46;;;;;;;3.95;3.55;;;11.80;51.50;;;;;;4996498;28;20045;-88
2021/04/27 09:34:49;;;;;;;4.80;3.33;;;11.80;52.90;;;;;;4978772;28;20558;-87
2021/04/27 09:48:35;;;;;;;5.90;3.70;;;12.00;52.10;;;;;;4992471;28;20161;-89
2021/04/27 09:51:21;;;;;;;4.72;3.63;;;12.00;50.30;;;;;;4959272;28;20670;-86
2021/04/27 09:53:54;;;;;;;8.82;3.83;;;12.00;51.00;;;;;;4992427;28;20105;-86
2021/04/27 09:56:39;;;;;;;5.68;4.05;;;12.00;51.30;;;;;;4974779;28;20038;-88
2021/04/27 09:59:13;;;;;;;4.45;3.30;;;12.00;50.50;;;;;;4977134;28;20027;-88
2021/04/27 10:01:40;;;;;;;6.47;3.92;;;11.90;52.50;;;;;;4990968;28;20038;-89
2021/04/27 10:04:07;;;;;;;6.10;3.83;;;11.90;50.70;;;;;;4991358;28;20023;-88
2021/04/27 10:06:34;;;;;;;5.07;3.63;;;11.90;50.90;;;;;;4992286;28;20035;-88
2021/04/27 10:09:01;;;;;;;4.68;3.17;;;12.00;51.20;;;;;;4957091;28;20437;-87
2021/04/27 10:11:28;;;;;;;7.82;3.80;;;12.00;51.40;;;;;;4991363;28;20055;-88
2021/04/27 10:13:56;;;;;;;7.88;3.38;;;12.00;51.20;;;;;;4980182;28;20111;-88
2021/04/27 10:16:23;;;;;;;7.93;3.75;;;12.00;51.70;;;;;;4970519;28;20030;-90
2021/04/27 10:18:52;;;;;;;8.88;3.70;;;12.10;53.30;;;;;;4970003;28;20456;-88
2021/04/27 10:21:18;;;;;;;5.72;3.72;;;12.30;51.90;;;;;;4967456;28;20038;-84
2021/04/27 10:23:49;;;;;;;6.75;3.53;;;12.30;50.10;;;;;;4967830;28;20040;-90
2021/04/27 10:26:20;;;;;;;5.25;3.10;;;12.30;49.90;;;;;;4954014;29;20031;-88
2021/04/27 10:29:00;;;;;;;15.98;4.20;;;12.30;50.20;;;;;;4951269;29;20449;-85
2021/04/27 10:31:28;;;;;;;5.70;3.40;;;12.30;51.30;;;;;;4951217;28;20554;-89
2021/04/27 10:34:15;;;;;;;6.22;3.70;;;12.40;49.80;;;;;;4975669;28;20076;-92
2021/04/27 10:36:49;;;;;;;5.05;3.25;;;12.50;52.60;;;;;;4984825;28;20097;-89
2021/04/27 10:39:17;;;;;;;6.90;3.77;;;12.60;50.20;;;;;;4955955;28;20034;-89
2021/04/27 10:41:57;;;;;;;4.65;3.65;;;12.70;51.30;;;;;;4971628;28;20351;-86
2021/04/27 10:44:24;;;;;;;9.45;3.58;;;12.90;49.90;;;;;;4972069;28;20494;-90
2021/04/27 10:46:53;;;;;;;4.70;3.38;;;13.10;51.00;;;;;;4986613;28;20066;-88
2021/04/27 10:49:34;;;;;;;5.07;3.53;;;13.20;48.70;;;;;;4971239;28;20035;-89
2021/04/27 10:52:03;;;;;;;5.70;3.80;;;13.30;50.20;;;;;;4987670;28;20066;-89
2021/04/27 10:54:31;;;;;;;6.20;3.65;;;13.30;48.60;;;;;;4972008;28;20479;-87
2021/04/27 10:57:00;;;;;;;6.15;3.55;;;13.30;49.40;;;;;;4986349;28;20600;-89
2021/04/27 10:59:28;;;;;;;4.25;3.15;;;13.10;47.90;;;;;;4986462;28;20042;-88
2021/04/27 11:02:11;;;;;;;3.88;2.70;;;13.10;48.60;;;;;;4972050;28;20121;-88
2021/04/27 11:04:47;;;;;;;7.70;3.17;;;13.10;49.60;;;;;;4983173;28;20038;-89
2021/04/27 11:07:16;;;;;;;3.92;2.88;;;13.10;46.80;;;;;;4976179;28;20118;-89
2021/04/27 11:10:04;;;;;;;6.80;2.97;;;13.20;47.30;;;;;;4983664;28;20094;-90
2021/04/27 11:12:34;;;;;;;4.55;3.15;;;13.20;44.20;;;;;;4983206;28;20054;-87
2021/04/27 11:15:02;;;;;;;6.45;2.88;;;13.10;44.50;;;;;;4967879;28;20057;-89
2021/04/27 11:17:33;;;;;;;4.80;3.17;;;13.00;46.00;;;;;;4984344;28;20050;-87
2021/04/27 11:19:59;;;;;;;3.83;2.88;;;12.90;46.10;;;;;;4987118;28;20472;-90
2021/04/27 11:22:30;;;;;;;4.15;2.80;;;13.00;46.00;;;;;;4985815;28;20077;-87
2021/04/27 11:24:57;;;;;;;4.15;2.90;;;12.90;47.00;;;;;;4969826;28;20442;-90
2021/04/27 11:27:31;;;;;;;4.88;3.20;;;12.90;46.60;;;;;;4951809;28;20081;-90
2021/04/27 11:29:59;;;;;;;6.28;2.70;;;13.10;47.40;;;;;;4965910;28;20474;-89
2021/04/27 11:32:27;;;;;;;5.65;2.90;;;13.20;48.60;;;;;;4983346;28;20050;-92
2021/04/27 11:34:55;;;;;;;2.70;2.25;;;13.40;48.70;;;;;;4966844;28;20034;-88
2021/04/27 11:37:24;;;;;;;3.70;2.85;;;13.50;44.80;;;;;;4981858;28;20114;-89
2021/04/27 11:39:52;;;;;;;4.60;2.97;;;13.50;45.60;;;;;;4984867;28;20050;-89
2021/04/27 11:42:44;;;;;;;5.10;3.45;;;13.60;46.50;;;;;;4984805;28;20050;-88
2021/04/27 11:45:15;;;;;;;5.10;3.10;;;13.50;45.90;;;;;;4952876;28;20078;-89
2021/04/27 11:47:43;;;;;;;3.40;2.92;;;13.40;46.00;;;;;;4984406;28;20039;-88
2021/04/27 11:50:14;;;;;;;6.38;3.80;;;13.40;47.10;;;;;;4983285;28;20093;-89
2021/04/27 11:52:46;;;;;;;6.20;3.05;;;13.40;46.30;;;;;;4965646;28;20498;-90
2021/04/27 11:55:20;;;;;;;4.13;2.65;;;13.40;45.90;;;;;;4956354;28;20040;-90
2021/04/27 11:57:47;;;;;;;3.47;2.78;;;13.50;46.00;;;;;;4963414;28;20035;-88
2021/04/27 12:00:14;;;;;;;3.58;3.00;;;13.70;46.50;;;;;;4968456;28;20569;-89
2021/04/27 12:02:40;;;;;;;5.55;3.42;;;14.10;44.90;;;;;;4966049;28;20240;-90
2021/04/27 12:05:06;;;;;;;4.43;2.72;;;14.40;46.50;;;;;;4966204;28;20046;-89
2021/04/27 12:07:31;;;;;;;7.18;3.20;;;14.60;43.60;;;;;;4947650;28;20048;-89
2021/04/27 12:09:59;;;;;;;4.00;3.22;;;14.70;43.70;;;;;;4970321;28;20114;-92
2021/04/27 12:12:26;;;;;;;4.43;3.45;;;14.70;43.40;;;;;;4983122;28;20130;-90
2021/04/27 12:14:57;;;;;;;5.70;3.20;;;14.50;44.40;;;;;;4982646;28;20489;-90
2021/04/27 12:17:23;;;;;;;4.13;2.42;;;14.50;44.50;;;;;;4981470;28;20046;-87
2021/04/27 12:20:05;;;;;;;4.47;2.90;;;14.60;46.10;;;;;;4982717;28;20577;-86
2021/04/27 12:22:31;;;;;;;3.35;2.70;;;14.80;42.70;;;;;;4969437;28;20042;-88
2021/04/27 12:24:56;;;;;;;6.07;3.53;;;14.80;41.30;;;;;;4980424;28;20050;-88
2021/04/27 12:27:23;;;;;;;5.38;3.83;;;14.80;41.10;;;;;;4978599;28;20043;-87
2021/04/27 12:29:50;;;;;;;9.82;3.10;;;14.80;43.50;;;;;;4979343;28;20106;-87
2021/04/27 12:32:17;;;;;;;6.55;2.92;;;14.80;41.80;;;;;;4980558;28;20069;-87
2021/04/27 12:35:00;;;;;;;3.55;3.10;;;14.70;42.50;;;;;;4985048;28;20035;-88
2021/04/27 12:37:29;;;;;;;4.32;2.80;;;14.60;41.40;;;;;;4969847;28;20019;-86
2021/04/27 12:39:56;;;;;;;4.78;3.25;;;14.60;43.50;;;;;;4986160;28;20034;-91
2021/04/27 12:42:29;;;;;;;4.60;3.10;;;14.70;44.20;;;;;;4985194;28;20081;-89
2021/04/27 12:45:04;;;;;;;6.53;3.63;;;14.70;41.30;;;;;;4980660;28;20046;-89
2021/04/27 12:47:36;;;;;;;4.55;3.30;;;14.80;42.90;;;;;;4964892;28;20089;-89
2021/04/27 12:50:11;;;;;;;5.47;3.03;;;14.70;44.40;;;;;;4972467;28;20043;-88
2021/04/27 12:52:52;;;;;;;5.97;3.03;;;14.70;44.80;;;;;;4968611;28;20126;-87
2021/04/27 12:55:21;;;;;;;4.45;2.97;;;14.70;43.60;;;;;;4973631;28;20031;-89
2021/04/27 12:57:46;;;;;;;3.88;2.67;;;14.80;44.20;;;;;;4968898;28;20037;-89
2021/04/27 13:00:17;;;;;;;4.53;3.65;;;14.90;44.70;;;;;;4984111;28;20038;-88
2021/04/27 13:02:44;;;;;;;4.25;3.40;;;15.10;44.70;;;;;;4977785;28;20113;-89
2021/04/27 13:05:11;;;;;;;4.88;3.05;;;15.10;44.10;;;;;;4984932;28;20039;-87
2021/04/27 13:07:46;;;;;;;4.25;3.20;;;15.30;41.60;;;;;;4983551;28;20070;-89
2021/04/27 13:10:22;;;;;;;4.75;2.45;;;15.50;41.90;;;;;;4964381;28;20093;-87
2021/04/27 13:12:48;;;;;;;4.53;3.20;;;15.60;39.20;;;;;;4967084;28;20696;-90
2021/04/27 13:15:23;;;;;;;5.88;3.05;;;15.70;41.60;;;;;;4967655;28;20520;-86
2021/04/27 13:17:57;;;;;;;3.67;3.03;;;15.80;43.60;;;;;;4984682;28;20089;-88
2021/04/27 13:20:26;;;;;;;4.13;2.60;;;16.10;43.30;;;;;;4984095;28;20038;-87
2021/04/27 13:27:06;;;;;;;5.55;3.25;;;15.70;43.00;;;;;;4987328;28;20789;-90
2021/04/27 13:29:37;;;;;;;6.05;3.50;;;15.40;43.80;;;;;;4970586;28;20034;-88
2021/04/27 13:32:21;;;;;;;5.28;3.50;;;15.40;43.60;;;;;;4966853;28;20134;-89
2021/04/27 13:34:48;;;;;;;8.13;3.50;;;15.60;45.20;;;;;;4968208;28;20049;-87
2021/04/27 13:37:14;;;;;;;4.45;3.20;;;15.60;43.10;;;;;;4981364;28;20035;-88
2021/04/27 13:39:40;;;;;;;4.25;2.80;;;15.50;44.20;;;;;;4981580;28;20499;-89
2021/04/27 13:42:07;;;;;;;5.95;3.03;;;15.50;41.70;;;;;;4963611;28;20035;-87
2021/04/27 13:44:32;;;;;;;4.30;2.83;;;15.60;42.40;;;;;;4980703;28;20758;-89
2021/04/27 13:46:59;;;;;;;4.72;2.78;;;15.60;41.00;;;;;;4983975;28;20039;-89
2021/04/27 13:49:25;;;;;;;4.15;2.60;;;15.60;40.60;;;;;;4955880;28;20058;-88